Terminal Aerodrome Forecast
Issued by NWS Indianapolis, IN

Home | Current Version | Previous Version | Text Only | Print | Product List | Glossary On
Versions: 1 2 3 4 5 6 7 8 9 10 11 12 13 14 15 16 17 18 19 20 21 22 23 24 25 26 27 28 29
000
FTUS43 KIND 232000 AAA
TAFIND
TAF AMD
KIND 232027Z 2320/2424 36010KT P6SM SCT010 OVC035
     FM240100 01010KT P6SM BKN100
     FM240400 01010KT P6SM OVC250
     FM240900 02008KT P6SM SKC=

USA.gov is the U.S. government's official web portal to all federal, state and local government web resources and services.